sensor_id;sensor_type;location;lat;lon;timestamp;temperature;humidity
72440;DHT22;60446;50.752;4.352;2023-04-25T00:00:40;7.60;71.30
72440;DHT22;60446;50.752;4.352;2023-04-25T00:03:12;7.60;68.70
72440;DHT22;60446;50.752;4.352;2023-04-25T00:05:41;7.60;69.30
72440;DHT22;60446;50.752;4.352;2023-04-25T00:08:08;7.60;70.00
72440;DHT22;60446;50.752;4.352;2023-04-25T00:10:38;7.50;69.30
72440;DHT22;60446;50.752;4.352;2023-04-25T00:13:06;7.50;69.70
72440;DHT22;60446;50.752;4.352;2023-04-25T00:15:35;7.50;70.10
72440;DHT22;60446;50.752;4.352;2023-04-25T00:18:04;7.50;70.00
72440;DHT22;60446;50.752;4.352;2023-04-25T00:20:35;7.60;70.20
72440;DHT22;60446;50.752;4.352;2023-04-25T00:23:02;7.60;69.50
72440;DHT22;60446;50.752;4.352;2023-04-25T00:25:30;7.60;69.70
72440;DHT22;60446;50.752;4.352;2023-04-25T00:27:57;7.50;69.10
72440;DHT22;60446;50.752;4.352;2023-04-25T00:30:27;7.50;69.40
72440;DHT22;60446;50.752;4.352;2023-04-25T00:32:57;7.60;69.80
72440;DHT22;60446;50.752;4.352;2023-04-25T00:35:25;7.50;69.90
72440;DHT22;60446;50.752;4.352;2023-04-25T00:37:52;7.60;70.40
72440;DHT22;60446;50.752;4.352;2023-04-25T00:40:21;7.50;70.20
72440;DHT22;60446;50.752;4.352;2023-04-25T00:42:50;7.50;69.80
72440;DHT22;60446;50.752;4.352;2023-04-25T00:45:19;7.40;69.90
72440;DHT22;60446;50.752;4.352;2023-04-25T00:47:50;7.40;70.80
72440;DHT22;60446;50.752;4.352;2023-04-25T00:50:20;7.40;71.10
72440;DHT22;60446;50.752;4.352;2023-04-25T00:52:49;7.40;71.70
72440;DHT22;60446;50.752;4.352;2023-04-25T00:55:18;7.40;72.30
72440;DHT22;60446;50.752;4.352;2023-04-25T00:57:47;7.40;72.40
72440;DHT22;60446;50.752;4.352;2023-04-25T01:00:14;7.30;72.50
72440;DHT22;60446;50.752;4.352;2023-04-25T01:02:43;7.30;73.10
72440;DHT22;60446;50.752;4.352;2023-04-25T01:05:11;7.30;73.50
72440;DHT22;60446;50.752;4.352;2023-04-25T01:07:40;7.30;73.70
72440;DHT22;60446;50.752;4.352;2023-04-25T01:10:08;7.20;73.70
72440;DHT22;60446;50.752;4.352;2023-04-25T01:12:37;7.10;74.20
72440;DHT22;60446;50.752;4.352;2023-04-25T01:15:04;7.10;74.00
72440;DHT22;60446;50.752;4.352;2023-04-25T01:17:34;7.00;74.60
72440;DHT22;60446;50.752;4.352;2023-04-25T01:20:06;7.00;75.40
72440;DHT22;60446;50.752;4.352;2023-04-25T01:22:36;7.00;75.50
72440;DHT22;60446;50.752;4.352;2023-04-25T01:25:03;7.10;75.80
72440;DHT22;60446;50.752;4.352;2023-04-25T01:27:32;7.10;76.00
72440;DHT22;60446;50.752;4.352;2023-04-25T01:30:00;7.00;75.70
72440;DHT22;60446;50.752;4.352;2023-04-25T01:32:31;7.10;76.00
72440;DHT22;60446;50.752;4.352;2023-04-25T01:35:09;7.00;76.10
72440;DHT22;60446;50.752;4.352;2023-04-25T01:37:42;6.90;76.80
72440;DHT22;60446;50.752;4.352;2023-04-25T01:40:11;7.00;77.10
72440;DHT22;60446;50.752;4.352;2023-04-25T01:42:42;6.90;77.00
72440;DHT22;60446;50.752;4.352;2023-04-25T01:45:11;6.90;76.80
72440;DHT22;60446;50.752;4.352;2023-04-25T01:47:39;6.80;76.90
72440;DHT22;60446;50.752;4.352;2023-04-25T01:50:08;6.80;76.90
72440;DHT22;60446;50.752;4.352;2023-04-25T01:52:36;6.80;77.10
72440;DHT22;60446;50.752;4.352;2023-04-25T01:55:05;6.80;77.20
72440;DHT22;60446;50.752;4.352;2023-04-25T01:57:34;6.70;77.90
72440;DHT22;60446;50.752;4.352;2023-04-25T02:00:05;6.80;77.70
72440;DHT22;60446;50.752;4.352;2023-04-25T02:02:39;6.90;77.40
72440;DHT22;60446;50.752;4.352;2023-04-25T02:05:34;6.90;77.60
72440;DHT22;60446;50.752;4.352;2023-04-25T02:08:06;6.90;78.10
72440;DHT22;60446;50.752;4.352;2023-04-25T02:10:35;7.00;77.70
72440;DHT22;60446;50.752;4.352;2023-04-25T02:13:09;7.00;78.00
72440;DHT22;60446;50.752;4.352;2023-04-25T02:15:57;7.10;77.50
72440;DHT22;60446;50.752;4.352;2023-04-25T02:18:24;7.10;76.90
72440;DHT22;60446;50.752;4.352;2023-04-25T02:20:53;7.00;78.10
72440;DHT22;60446;50.752;4.352;2023-04-25T02:23:20;7.00;77.80
72440;DHT22;60446;50.752;4.352;2023-04-25T02:25:47;7.00;77.60
72440;DHT22;60446;50.752;4.352;2023-04-25T02:28:15;7.00;77.50
72440;DHT22;60446;50.752;4.352;2023-04-25T02:30:42;6.90;77.40
72440;DHT22;60446;50.752;4.352;2023-04-25T02:33:09;6.90;77.50
72440;DHT22;60446;50.752;4.352;2023-04-25T02:35:37;6.90;77.60
72440;DHT22;60446;50.752;4.352;2023-04-25T02:38:04;6.90;77.40
72440;DHT22;60446;50.752;4.352;2023-04-25T02:40:32;6.80;76.60
72440;DHT22;60446;50.752;4.352;2023-04-25T02:42:59;6.70;77.30
72440;DHT22;60446;50.752;4.352;2023-04-25T02:45:26;6.70;76.90
72440;DHT22;60446;50.752;4.352;2023-04-25T02:47:55;6.60;76.90
72440;DHT22;60446;50.752;4.352;2023-04-25T02:50:22;6.70;77.10
72440;DHT22;60446;50.752;4.352;2023-04-25T02:52:49;6.80;77.60
72440;DHT22;60446;50.752;4.352;2023-04-25T02:55:22;6.80;78.40
72440;DHT22;60446;50.752;4.352;2023-04-25T02:57:53;6.80;77.00
72440;DHT22;60446;50.752;4.352;2023-04-25T03:00:34;6.70;77.30
72440;DHT22;60446;50.752;4.352;2023-04-25T03:03:01;6.80;77.50
72440;DHT22;60446;50.752;4.352;2023-04-25T03:05:29;6.80;79.10
72440;DHT22;60446;50.752;4.352;2023-04-25T03:07:56;6.90;79.30
72440;DHT22;60446;50.752;4.352;2023-04-25T03:10:24;6.90;79.40
72440;DHT22;60446;50.752;4.352;2023-04-25T03:12:51;6.80;79.30
72440;DHT22;60446;50.752;4.352;2023-04-25T03:15:18;6.70;79.10
72440;DHT22;60446;50.752;4.352;2023-04-25T03:17:46;6.70;79.10
72440;DHT22;60446;50.752;4.352;2023-04-25T03:20:13;6.70;79.20
72440;DHT22;60446;50.752;4.352;2023-04-25T03:22:41;6.80;79.00
72440;DHT22;60446;50.752;4.352;2023-04-25T03:25:08;6.90;79.60
72440;DHT22;60446;50.752;4.352;2023-04-25T03:27:35;6.90;77.60
72440;DHT22;60446;50.752;4.352;2023-04-25T03:30:03;6.90;77.90
72440;DHT22;60446;50.752;4.352;2023-04-25T03:32:30;6.90;78.00
72440;DHT22;60446;50.752;4.352;2023-04-25T03:34:57;6.80;78.50
72440;DHT22;60446;50.752;4.352;2023-04-25T03:37:26;6.80;77.60
72440;DHT22;60446;50.752;4.352;2023-04-25T03:39:53;6.90;77.40
72440;DHT22;60446;50.752;4.352;2023-04-25T03:42:23;6.70;78.50
72440;DHT22;60446;50.752;4.352;2023-04-25T03:44:51;6.70;78.20
72440;DHT22;60446;50.752;4.352;2023-04-25T03:47:19;6.70;77.40
72440;DHT22;60446;50.752;4.352;2023-04-25T03:49:47;6.70;77.60
72440;DHT22;60446;50.752;4.352;2023-04-25T03:52:18;6.50;77.60
72440;DHT22;60446;50.752;4.352;2023-04-25T03:54:47;6.50;78.50
72440;DHT22;60446;50.752;4.352;2023-04-25T03:57:17;6.50;78.80
72440;DHT22;60446;50.752;4.352;2023-04-25T03:59:45;6.40;77.70
72440;DHT22;60446;50.752;4.352;2023-04-25T04:02:13;6.50;78.10
72440;DHT22;60446;50.752;4.352;2023-04-25T04:04:41;6.50;78.10
72440;DHT22;60446;50.752;4.352;2023-04-25T04:07:11;6.40;77.40
72440;DHT22;60446;50.752;4.352;2023-04-25T04:09:44;6.30;77.70
72440;DHT22;60446;50.752;4.352;2023-04-25T04:12:17;6.30;78.30
72440;DHT22;60446;50.752;4.352;2023-04-25T04:14:44;6.40;77.90
72440;DHT22;60446;50.752;4.352;2023-04-25T04:17:12;6.30;77.60
72440;DHT22;60446;50.752;4.352;2023-04-25T04:19:39;6.40;76.70
72440;DHT22;60446;50.752;4.352;2023-04-25T04:22:18;6.30;77.10
72440;DHT22;60446;50.752;4.352;2023-04-25T04:24:46;6.30;76.80
72440;DHT22;60446;50.752;4.352;2023-04-25T04:27:19;6.30;76.90
72440;DHT22;60446;50.752;4.352;2023-04-25T04:29:54;6.40;76.50
72440;DHT22;60446;50.752;4.352;2023-04-25T04:32:44;6.40;75.40
72440;DHT22;60446;50.752;4.352;2023-04-25T04:35:11;6.30;75.90
72440;DHT22;60446;50.752;4.352;2023-04-25T04:37:39;6.20;75.70
72440;DHT22;60446;50.752;4.352;2023-04-25T04:40:09;6.20;76.30
72440;DHT22;60446;50.752;4.352;2023-04-25T04:42:52;6.30;75.40
72440;DHT22;60446;50.752;4.352;2023-04-25T04:45:46;6.30;76.30
72440;DHT22;60446;50.752;4.352;2023-04-25T04:48:40;6.30;75.70
72440;DHT22;60446;50.752;4.352;2023-04-25T04:51:19;6.30;74.90
72440;DHT22;60446;50.752;4.352;2023-04-25T04:54:04;6.30;74.90
72440;DHT22;60446;50.752;4.352;2023-04-25T04:57:04;6.40;74.90
72440;DHT22;60446;50.752;4.352;2023-04-25T04:59:54;6.40;75.00
72440;DHT22;60446;50.752;4.352;2023-04-25T05:02:53;6.40;74.40
72440;DHT22;60446;50.752;4.352;2023-04-25T05:05:30;6.40;73.60
72440;DHT22;60446;50.752;4.352;2023-04-25T05:08:29;6.30;73.80
72440;DHT22;60446;50.752;4.352;2023-04-25T05:11:13;6.30;72.90
72440;DHT22;60446;50.752;4.352;2023-04-25T05:14:06;6.10;73.90
72440;DHT22;60446;50.752;4.352;2023-04-25T05:16:56;6.20;73.70
72440;DHT22;60446;50.752;4.352;2023-04-25T05:19:45;6.20;73.50
72440;DHT22;60446;50.752;4.352;2023-04-25T05:22:18;6.10;74.20
72440;DHT22;60446;50.752;4.352;2023-04-25T05:24:54;6.20;74.30
72440;DHT22;60446;50.752;4.352;2023-04-25T05:27:44;6.10;74.90
72440;DHT22;60446;50.752;4.352;2023-04-25T05:30:38;6.10;74.90
72440;DHT22;60446;50.752;4.352;2023-04-25T05:33:13;6.20;75.20
72440;DHT22;60446;50.752;4.352;2023-04-25T05:35:41;6.20;75.70
72440;DHT22;60446;50.752;4.352;2023-04-25T05:38:10;6.20;75.10
72440;DHT22;60446;50.752;4.352;2023-04-25T05:41:01;6.30;75.80
72440;DHT22;60446;50.752;4.352;2023-04-25T05:43:51;6.30;74.20
72440;DHT22;60446;50.752;4.352;2023-04-25T05:46:44;6.30;73.60
72440;DHT22;60446;50.752;4.352;2023-04-25T05:49:24;6.30;73.30
72440;DHT22;60446;50.752;4.352;2023-04-25T05:52:09;6.30;74.30
72440;DHT22;60446;50.752;4.352;2023-04-25T05:54:37;6.30;73.40
72440;DHT22;60446;50.752;4.352;2023-04-25T05:57:04;6.20;74.50
72440;DHT22;60446;50.752;4.352;2023-04-25T05:59:31;6.20;74.80
72440;DHT22;60446;50.752;4.352;2023-04-25T06:01:59;6.20;75.00
72440;DHT22;60446;50.752;4.352;2023-04-25T06:04:29;6.10;75.60
72440;DHT22;60446;50.752;4.352;2023-04-25T06:06:56;6.10;76.00
72440;DHT22;60446;50.752;4.352;2023-04-25T06:09:24;6.20;74.90
72440;DHT22;60446;50.752;4.352;2023-04-25T06:11:53;6.20;75.70
72440;DHT22;60446;50.752;4.352;2023-04-25T06:14:20;6.30;75.00
72440;DHT22;60446;50.752;4.352;2023-04-25T06:16:49;6.30;75.20
72440;DHT22;60446;50.752;4.352;2023-04-25T06:19:16;6.30;74.40
72440;DHT22;60446;50.752;4.352;2023-04-25T06:21:43;6.50;74.30
72440;DHT22;60446;50.752;4.352;2023-04-25T06:24:11;6.50;73.90
72440;DHT22;60446;50.752;4.352;2023-04-25T06:26:39;6.70;73.20
72440;DHT22;60446;50.752;4.352;2023-04-25T06:29:06;6.70;72.10
72440;DHT22;60446;50.752;4.352;2023-04-25T06:31:33;6.70;73.90
72440;DHT22;60446;50.752;4.352;2023-04-25T06:34:02;6.90;71.70
72440;DHT22;60446;50.752;4.352;2023-04-25T06:36:32;6.90;71.00
72440;DHT22;60446;50.752;4.352;2023-04-25T06:39:09;7.10;70.90
72440;DHT22;60446;50.752;4.352;2023-04-25T06:41:39;7.10;70.20
72440;DHT22;60446;50.752;4.352;2023-04-25T06:44:14;7.00;70.80
72440;DHT22;60446;50.752;4.352;2023-04-25T06:46:51;7.10;70.20
72440;DHT22;60446;50.752;4.352;2023-04-25T06:49:19;7.30;69.90
72440;DHT22;60446;50.752;4.352;2023-04-25T06:51:46;7.20;69.90
72440;DHT22;60446;50.752;4.352;2023-04-25T06:54:14;7.30;71.40
72440;DHT22;60446;50.752;4.352;2023-04-25T06:56:51;7.40;70.90
72440;DHT22;60446;50.752;4.352;2023-04-25T06:59:18;7.60;70.30
72440;DHT22;60446;50.752;4.352;2023-04-25T07:01:45;7.70;69.20
72440;DHT22;60446;50.752;4.352;2023-04-25T07:04:16;7.70;67.60
72440;DHT22;60446;50.752;4.352;2023-04-25T07:06:49;7.50;68.20
72440;DHT22;60446;50.752;4.352;2023-04-25T07:09:20;7.50;69.20
72440;DHT22;60446;50.752;4.352;2023-04-25T07:11:50;7.60;68.10
72440;DHT22;60446;50.752;4.352;2023-04-25T07:14:17;7.50;68.10
72440;DHT22;60446;50.752;4.352;2023-04-25T07:16:45;7.50;68.40
72440;DHT22;60446;50.752;4.352;2023-04-25T07:19:12;7.60;69.00
72440;DHT22;60446;50.752;4.352;2023-04-25T07:21:51;7.60;67.70
72440;DHT22;60446;50.752;4.352;2023-04-25T07:24:20;7.70;67.60
72440;DHT22;60446;50.752;4.352;2023-04-25T07:26:51;7.30;65.90
72440;DHT22;60446;50.752;4.352;2023-04-25T07:29:25;7.30;66.70
72440;DHT22;60446;50.752;4.352;2023-04-25T07:31:52;7.20;67.80
72440;DHT22;60446;50.752;4.352;2023-04-25T07:34:20;7.40;67.70
72440;DHT22;60446;50.752;4.352;2023-04-25T07:36:48;7.60;67.40
72440;DHT22;60446;50.752;4.352;2023-04-25T07:39:15;7.50;66.40
72440;DHT22;60446;50.752;4.352;2023-04-25T07:41:43;7.50;66.20
72440;DHT22;60446;50.752;4.352;2023-04-25T07:44:16;7.60;66.40
72440;DHT22;60446;50.752;4.352;2023-04-25T07:46:44;7.80;65.70
72440;DHT22;60446;50.752;4.352;2023-04-25T07:49:11;7.90;66.50
72440;DHT22;60446;50.752;4.352;2023-04-25T07:51:40;7.90;66.40
72440;DHT22;60446;50.752;4.352;2023-04-25T07:54:16;7.90;65.70
72440;DHT22;60446;50.752;4.352;2023-04-25T07:56:49;8.00;65.00
72440;DHT22;60446;50.752;4.352;2023-04-25T07:59:24;8.20;64.50
72440;DHT22;60446;50.752;4.352;2023-04-25T08:01:54;8.10;64.30
72440;DHT22;60446;50.752;4.352;2023-04-25T08:04:24;8.20;64.20
72440;DHT22;60446;50.752;4.352;2023-04-25T08:06:57;8.40;63.70
72440;DHT22;60446;50.752;4.352;2023-04-25T08:09:29;8.60;64.60
72440;DHT22;60446;50.752;4.352;2023-04-25T08:12:08;8.80;60.50
72440;DHT22;60446;50.752;4.352;2023-04-25T08:14:35;8.60;59.70
72440;DHT22;60446;50.752;4.352;2023-04-25T08:17:04;8.20;60.70
72440;DHT22;60446;50.752;4.352;2023-04-25T08:19:38;8.20;61.60
72440;DHT22;60446;50.752;4.352;2023-04-25T08:22:09;8.20;61.60
72440;DHT22;60446;50.752;4.352;2023-04-25T08:24:46;8.20;61.30
72440;DHT22;60446;50.752;4.352;2023-04-25T08:27:20;8.40;59.70
72440;DHT22;60446;50.752;4.352;2023-04-25T08:29:48;8.50;61.60
72440;DHT22;60446;50.752;4.352;2023-04-25T08:32:16;8.60;60.40
72440;DHT22;60446;50.752;4.352;2023-04-25T08:35:28;8.80;61.00
72440;DHT22;60446;50.752;4.352;2023-04-25T08:37:58;8.70;62.00
72440;DHT22;60446;50.752;4.352;2023-04-25T08:40:45;8.80;60.80
72440;DHT22;60446;50.752;4.352;2023-04-25T08:43:20;8.60;60.10
72440;DHT22;60446;50.752;4.352;2023-04-25T08:45:59;8.50;59.50
72440;DHT22;60446;50.752;4.352;2023-04-25T08:48:37;8.50;59.80
72440;DHT22;60446;50.752;4.352;2023-04-25T08:51:25;8.50;60.00
72440;DHT22;60446;50.752;4.352;2023-04-25T08:54:12;8.70;59.50
72440;DHT22;60446;50.752;4.352;2023-04-25T08:57:12;8.60;60.60
72440;DHT22;60446;50.752;4.352;2023-04-25T09:00:04;8.50;57.90
72440;DHT22;60446;50.752;4.352;2023-04-25T09:02:50;8.60;58.40
72440;DHT22;60446;50.752;4.352;2023-04-25T09:05:33;8.60;58.80
72440;DHT22;60446;50.752;4.352;2023-04-25T09:08:01;8.80;58.20
72440;DHT22;60446;50.752;4.352;2023-04-25T09:10:43;8.90;55.70
72440;DHT22;60446;50.752;4.352;2023-04-25T09:13:28;9.00;55.90
72440;DHT22;60446;50.752;4.352;2023-04-25T09:16:19;9.40;55.00
72440;DHT22;60446;50.752;4.352;2023-04-25T09:19:26;9.70;55.10
72440;DHT22;60446;50.752;4.352;2023-04-25T09:22:37;10.00;53.00
72440;DHT22;60446;50.752;4.352;2023-04-25T09:25:36;9.60;52.60
72440;DHT22;60446;50.752;4.352;2023-04-25T09:28:13;9.60;53.50
72440;DHT22;60446;50.752;4.352;2023-04-25T09:31:33;9.30;53.90
72440;DHT22;60446;50.752;4.352;2023-04-25T09:37:37;9.60;53.20
72440;DHT22;60446;50.752;4.352;2023-04-25T09:40:34;9.70;52.70
72440;DHT22;60446;50.752;4.352;2023-04-25T09:43:36;9.70;53.40
72440;DHT22;60446;50.752;4.352;2023-04-25T09:46:42;9.70;52.90
72440;DHT22;60446;50.752;4.352;2023-04-25T09:49:28;9.50;53.90
72440;DHT22;60446;50.752;4.352;2023-04-25T09:52:24;9.20;54.40
72440;DHT22;60446;50.752;4.352;2023-04-25T09:55:23;9.00;54.80
72440;DHT22;60446;50.752;4.352;2023-04-25T09:58:27;9.00;56.60
72440;DHT22;60446;50.752;4.352;2023-04-25T10:01:18;9.20;56.30
72440;DHT22;60446;50.752;4.352;2023-04-25T10:04:11;9.10;56.60
72440;DHT22;60446;50.752;4.352;2023-04-25T10:07:19;8.90;56.60
72440;DHT22;60446;50.752;4.352;2023-04-25T10:10:02;8.70;56.70
72440;DHT22;60446;50.752;4.352;2023-04-25T10:12:40;8.60;56.30
72440;DHT22;60446;50.752;4.352;2023-04-25T10:15:15;8.80;55.90
72440;DHT22;60446;50.752;4.352;2023-04-25T10:17:44;8.90;57.10
72440;DHT22;60446;50.752;4.352;2023-04-25T10:20:17;9.00;55.20
72440;DHT22;60446;50.752;4.352;2023-04-25T10:23:02;9.10;55.40
72440;DHT22;60446;50.752;4.352;2023-04-25T10:26:00;9.30;54.50
72440;DHT22;60446;50.752;4.352;2023-04-25T10:28:29;9.60;55.30
72440;DHT22;60446;50.752;4.352;2023-04-25T10:31:31;9.80;53.40
72440;DHT22;60446;50.752;4.352;2023-04-25T10:34:12;9.90;53.30
72440;DHT22;60446;50.752;4.352;2023-04-25T10:36:49;10.20;54.00
72440;DHT22;60446;50.752;4.352;2023-04-25T10:39:35;10.40;53.60
72440;DHT22;60446;50.752;4.352;2023-04-25T10:43:47;10.70;50.70
72440;DHT22;60446;50.752;4.352;2023-04-25T10:46:33;10.70;51.20
72440;DHT22;60446;50.752;4.352;2023-04-25T10:49:56;10.70;49.80
72440;DHT22;60446;50.752;4.352;2023-04-25T10:53:31;10.70;52.10
72440;DHT22;60446;50.752;4.352;2023-04-25T10:56:42;10.80;49.30
72440;DHT22;60446;50.752;4.352;2023-04-25T10:59:50;10.50;47.40
72440;DHT22;60446;50.752;4.352;2023-04-25T11:03:20;10.30;46.00
72440;DHT22;60446;50.752;4.352;2023-04-25T11:10:21;10.00;47.60
72440;DHT22;60446;50.752;4.352;2023-04-25T11:13:37;10.10;49.30
72440;DHT22;60446;50.752;4.352;2023-04-25T11:16:38;9.40;56.00
72440;DHT22;60446;50.752;4.352;2023-04-25T11:19:40;8.70;59.80
72440;DHT22;60446;50.752;4.352;2023-04-25T11:22:36;8.30;62.00
72440;DHT22;60446;50.752;4.352;2023-04-25T11:25:26;8.30;61.80
72440;DHT22;60446;50.752;4.352;2023-04-25T11:28:31;8.40;62.20
72440;DHT22;60446;50.752;4.352;2023-04-25T11:32:21;8.50;61.10
72440;DHT22;60446;50.752;4.352;2023-04-25T11:35:28;8.60;61.30
72440;DHT22;60446;50.752;4.352;2023-04-25T11:38:36;8.70;60.60
72440;DHT22;60446;50.752;4.352;2023-04-25T11:41:28;8.80;58.70
72440;DHT22;60446;50.752;4.352;2023-04-25T11:44:37;8.80;59.10
72440;DHT22;60446;50.752;4.352;2023-04-25T11:48:13;8.80;57.90
72440;DHT22;60446;50.752;4.352;2023-04-25T11:51:31;9.30;57.30
72440;DHT22;60446;50.752;4.352;2023-04-25T11:55:00;9.80;55.70
72440;DHT22;60446;50.752;4.352;2023-04-25T11:58:09;10.20;52.50
72440;DHT22;60446;50.752;4.352;2023-04-25T12:06:06;10.00;51.20
72440;DHT22;60446;50.752;4.352;2023-04-25T12:09:42;9.50;52.50
72440;DHT22;60446;50.752;4.352;2023-04-25T12:13:42;9.60;52.40
72440;DHT22;60446;50.752;4.352;2023-04-25T12:16:46;9.60;51.10
72440;DHT22;60446;50.752;4.352;2023-04-25T12:20:45;9.40;51.20
72440;DHT22;60446;50.752;4.352;2023-04-25T12:24:18;10.30;50.20
72440;DHT22;60446;50.752;4.352;2023-04-25T12:27:30;10.60;48.80
72440;DHT22;60446;50.752;4.352;2023-04-25T12:31:06;10.60;50.30
72440;DHT22;60446;50.752;4.352;2023-04-25T12:33:56;11.10;49.30
72440;DHT22;60446;50.752;4.352;2023-04-25T12:37:10;11.30;46.80
72440;DHT22;60446;50.752;4.352;2023-04-25T12:40:47;11.30;46.20
72440;DHT22;60446;50.752;4.352;2023-04-25T12:44:08;11.20;45.30
72440;DHT22;60446;50.752;4.352;2023-04-25T12:46:56;11.00;44.70
72440;DHT22;60446;50.752;4.352;2023-04-25T12:50:01;10.60;46.30
72440;DHT22;60446;50.752;4.352;2023-04-25T12:53:04;10.50;47.40
72440;DHT22;60446;50.752;4.352;2023-04-25T12:55:47;10.40;48.00
72440;DHT22;60446;50.752;4.352;2023-04-25T12:58:59;10.30;47.80
72440;DHT22;60446;50.752;4.352;2023-04-25T13:02:19;10.10;47.30
72440;DHT22;60446;50.752;4.352;2023-04-25T13:06:02;9.90;47.60
72440;DHT22;60446;50.752;4.352;2023-04-25T13:09:17;10.00;47.80
72440;DHT22;60446;50.752;4.352;2023-04-25T13:12:12;10.30;46.80
72440;DHT22;60446;50.752;4.352;2023-04-25T13:15:02;10.60;47.30
72440;DHT22;60446;50.752;4.352;2023-04-25T13:18:08;11.30;47.50
72440;DHT22;60446;50.752;4.352;2023-04-25T13:21:40;11.60;45.00
72440;DHT22;60446;50.752;4.352;2023-04-25T13:24:38;11.70;45.10
72440;DHT22;60446;50.752;4.352;2023-04-25T13:27:30;11.40;45.70
72440;DHT22;60446;50.752;4.352;2023-04-25T13:30:36;11.20;46.90
72440;DHT22;60446;50.752;4.352;2023-04-25T13:33:42;11.10;49.50
72440;DHT22;60446;50.752;4.352;2023-04-25T13:36:47;11.60;46.90
72440;DHT22;60446;50.752;4.352;2023-04-25T13:39:22;11.20;46.60
72440;DHT22;60446;50.752;4.352;2023-04-25T13:42:17;10.90;47.90
72440;DHT22;60446;50.752;4.352;2023-04-25T13:45:32;10.90;47.90
72440;DHT22;60446;50.752;4.352;2023-04-25T13:48:28;10.80;49.10
72440;DHT22;60446;50.752;4.352;2023-04-25T13:51:15;11.00;48.70
72440;DHT22;60446;50.752;4.352;2023-04-25T13:54:21;11.20;46.80
72440;DHT22;60446;50.752;4.352;2023-04-25T13:57:48;11.10;44.90
72440;DHT22;60446;50.752;4.352;2023-04-25T14:01:22;11.20;46.10
72440;DHT22;60446;50.752;4.352;2023-04-25T14:04:16;11.70;44.20
72440;DHT22;60446;50.752;4.352;2023-04-25T14:07:16;11.90;41.30
72440;DHT22;60446;50.752;4.352;2023-04-25T14:10:24;12.10;41.30
72440;DHT22;60446;50.752;4.352;2023-04-25T14:13:44;12.20;42.40
72440;DHT22;60446;50.752;4.352;2023-04-25T14:16:33;12.30;42.70
72440;DHT22;60446;50.752;4.352;2023-04-25T14:19:17;12.10;41.10
72440;DHT22;60446;50.752;4.352;2023-04-25T14:25:54;11.50;46.20
72440;DHT22;60446;50.752;4.352;2023-04-25T14:28:54;11.00;47.80
72440;DHT22;60446;50.752;4.352;2023-04-25T14:31:37;10.70;48.50
72440;DHT22;60446;50.752;4.352;2023-04-25T14:34:45;11.00;47.30
72440;DHT22;60446;50.752;4.352;2023-04-25T14:37:52;11.70;46.90
72440;DHT22;60446;50.752;4.352;2023-04-25T14:40:57;12.20;44.30
72440;DHT22;60446;50.752;4.352;2023-04-25T14:44:03;12.90;43.10
72440;DHT22;60446;50.752;4.352;2023-04-25T14:47:00;13.90;43.80
72440;DHT22;60446;50.752;4.352;2023-04-25T14:54:00;14.30;41.10
72440;DHT22;60446;50.752;4.352;2023-04-25T14:57:15;15.20;38.60
72440;DHT22;60446;50.752;4.352;2023-04-25T15:00:29;15.90;38.80
72440;DHT22;60446;50.752;4.352;2023-04-25T15:03:27;15.40;36.90
72440;DHT22;60446;50.752;4.352;2023-04-25T15:06:13;14.60;38.90
72440;DHT22;60446;50.752;4.352;2023-04-25T15:08:43;13.80;37.80
72440;DHT22;60446;50.752;4.352;2023-04-25T15:11:15;13.10;41.70
72440;DHT22;60446;50.752;4.352;2023-04-25T15:14:20;12.90;42.00
72440;DHT22;60446;50.752;4.352;2023-04-25T15:17:01;11.80;44.50
72440;DHT22;60446;50.752;4.352;2023-04-25T15:20:12;11.40;46.10
72440;DHT22;60446;50.752;4.352;2023-04-25T15:23:03;11.00;46.90
72440;DHT22;60446;50.752;4.352;2023-04-25T15:26:27;10.80;46.70
72440;DHT22;60446;50.752;4.352;2023-04-25T15:29:03;10.70;47.30
72440;DHT22;60446;50.752;4.352;2023-04-25T15:31:42;10.90;47.20
72440;DHT22;60446;50.752;4.352;2023-04-25T15:34:23;10.60;46.50
72440;DHT22;60446;50.752;4.352;2023-04-25T15:37:04;10.40;47.90
72440;DHT22;60446;50.752;4.352;2023-04-25T15:40:07;10.50;47.60
72440;DHT22;60446;50.752;4.352;2023-04-25T15:42:52;11.20;47.50
72440;DHT22;60446;50.752;4.352;2023-04-25T15:45:26;12.50;44.20
72440;DHT22;60446;50.752;4.352;2023-04-25T15:47:57;13.60;42.60
72440;DHT22;60446;50.752;4.352;2023-04-25T15:50:56;14.30;41.40
72440;DHT22;60446;50.752;4.352;2023-04-25T15:53:49;14.20;40.80
72440;DHT22;60446;50.752;4.352;2023-04-25T15:56:28;13.20;41.70
72440;DHT22;60446;50.752;4.352;2023-04-25T15:59:10;12.90;43.50
72440;DHT22;60446;50.752;4.352;2023-04-25T16:01:58;12.90;43.60
72440;DHT22;60446;50.752;4.352;2023-04-25T16:04:32;12.70;42.90
72440;DHT22;60446;50.752;4.352;2023-04-25T16:07:17;12.40;43.10
72440;DHT22;60446;50.752;4.352;2023-04-25T16:09:49;12.20;43.70
72440;DHT22;60446;50.752;4.352;2023-04-25T16:12:27;11.60;43.90
72440;DHT22;60446;50.752;4.352;2023-04-25T16:14:57;11.20;45.00
72440;DHT22;60446;50.752;4.352;2023-04-25T16:17:25;11.20;45.80
72440;DHT22;60446;50.752;4.352;2023-04-25T16:19:58;11.90;46.10
72440;DHT22;60446;50.752;4.352;2023-04-25T16:22:27;12.30;44.10
72440;DHT22;60446;50.752;4.352;2023-04-25T16:24:55;12.40;43.20
72440;DHT22;60446;50.752;4.352;2023-04-25T16:27:25;11.90;44.60
72440;DHT22;60446;50.752;4.352;2023-04-25T16:29:53;10.90;45.60
72440;DHT22;60446;50.752;4.352;2023-04-25T16:32:21;10.70;46.20
72440;DHT22;60446;50.752;4.352;2023-04-25T16:34:50;10.60;47.30
72440;DHT22;60446;50.752;4.352;2023-04-25T16:37:17;10.80;46.20
72440;DHT22;60446;50.752;4.352;2023-04-25T16:39:47;10.70;45.50
72440;DHT22;60446;50.752;4.352;2023-04-25T16:42:14;10.50;46.70
72440;DHT22;60446;50.752;4.352;2023-04-25T16:44:42;10.40;46.70
72440;DHT22;60446;50.752;4.352;2023-04-25T16:47:13;10.10;46.50
72440;DHT22;60446;50.752;4.352;2023-04-25T16:49:45;9.90;47.50
72440;DHT22;60446;50.752;4.352;2023-04-25T16:52:16;9.90;47.30
72440;DHT22;60446;50.752;4.352;2023-04-25T16:54:52;9.80;47.70
72440;DHT22;60446;50.752;4.352;2023-04-25T16:57:23;9.90;48.50
72440;DHT22;60446;50.752;4.352;2023-04-25T17:00:06;9.80;46.80
72440;DHT22;60446;50.752;4.352;2023-04-25T17:02:41;9.80;46.10
72440;DHT22;60446;50.752;4.352;2023-04-25T17:05:09;9.80;46.10
72440;DHT22;60446;50.752;4.352;2023-04-25T17:07:39;9.90;46.00
72440;DHT22;60446;50.752;4.352;2023-04-25T17:10:09;9.70;46.60
72440;DHT22;60446;50.752;4.352;2023-04-25T17:12:36;9.40;47.40
72440;DHT22;60446;50.752;4.352;2023-04-25T17:15:26;9.50;47.90
72440;DHT22;60446;50.752;4.352;2023-04-25T17:18:06;9.40;47.90
72440;DHT22;60446;50.752;4.352;2023-04-25T17:20:39;9.20;48.90
72440;DHT22;60446;50.752;4.352;2023-04-25T17:23:14;9.10;49.50
72440;DHT22;60446;50.752;4.352;2023-04-25T17:25:58;9.30;48.50
72440;DHT22;60446;50.752;4.352;2023-04-25T17:28:42;9.30;49.20
72440;DHT22;60446;50.752;4.352;2023-04-25T17:31:24;9.30;48.70
72440;DHT22;60446;50.752;4.352;2023-04-25T17:34:10;9.20;48.20
72440;DHT22;60446;50.752;4.352;2023-04-25T17:37:08;9.10;50.00
72440;DHT22;60446;50.752;4.352;2023-04-25T17:40:06;9.10;50.30